createdAt,value
2023-04-29T00:00:39.952Z,6.30
2023-04-29T00:03:06.704Z,6.20
2023-04-29T00:05:33.631Z,6.10
2023-04-29T00:08:00.479Z,6.00
2023-04-29T00:10:27.076Z,6.30
2023-04-29T00:12:54.391Z,6.13
2023-04-29T00:15:21.300Z,6.77
2023-04-29T00:17:48.285Z,6.03
2023-04-29T00:20:15.097Z,6.30
2023-04-29T00:22:41.926Z,6.93
2023-04-29T00:25:09.117Z,6.30
2023-04-29T00:27:35.721Z,6.40
2023-04-29T00:30:03.715Z,6.30
2023-04-29T00:32:30.306Z,6.23
2023-04-29T00:34:57.370Z,6.03
2023-04-29T00:37:23.990Z,6.00
2023-04-29T00:39:51.005Z,6.30
2023-04-29T00:42:18.129Z,6.13
2023-04-29T00:44:44.688Z,6.73
2023-04-29T00:47:11.617Z,6.07
2023-04-29T00:49:41.633Z,6.07
2023-04-29T00:52:08.445Z,6.43
2023-04-29T00:54:36.911Z,6.33
2023-04-29T00:57:06.711Z,6.53
2023-04-29T00:59:34.444Z,6.30
2023-04-29T01:02:10.791Z,6.63
2023-04-29T01:04:37.565Z,6.87
2023-04-29T01:07:18.977Z,6.50
2023-04-29T01:10:03.384Z,6.80
2023-04-29T01:12:38.617Z,6.50
2023-04-29T01:15:26.186Z,7.17
2023-04-29T01:18:23.199Z,6.70
2023-04-29T01:20:50.856Z,6.50
2023-04-29T01:23:17.535Z,6.73
2023-04-29T01:25:45.136Z,7.37
2023-04-29T01:28:20.684Z,7.87
2023-04-29T01:30:57.995Z,8.00
2023-04-29T01:33:40.353Z,7.73
2023-04-29T01:36:33.906Z,7.83
2023-04-29T01:39:33.462Z,7.97
2023-04-29T01:42:19.944Z,7.93
2023-04-29T01:44:48.886Z,8.00
2023-04-29T01:47:16.338Z,8.20
2023-04-29T01:49:42.986Z,8.20
2023-04-29T01:52:09.595Z,8.47
2023-04-29T01:54:36.505Z,8.90
2023-04-29T01:57:03.455Z,8.40
2023-04-29T01:59:31.721Z,8.67
2023-04-29T02:01:58.938Z,8.47
2023-04-29T02:04:25.833Z,9.17
2023-04-29T02:06:52.805Z,8.50
2023-04-29T02:09:19.419Z,9.10
2023-04-29T02:11:45.995Z,10.07
2023-04-29T02:14:12.779Z,9.70
2023-04-29T02:16:39.477Z,9.43
2023-04-29T02:19:06.115Z,9.23
2023-04-29T02:21:32.736Z,9.33
2023-04-29T02:23:59.315Z,9.77
2023-04-29T02:26:25.893Z,9.47
2023-04-29T02:28:52.593Z,9.97
2023-04-29T02:31:19.284Z,10.57
2023-04-29T02:33:45.954Z,10.07
2023-04-29T02:36:12.537Z,10.97
2023-04-29T02:38:39.142Z,10.80
2023-04-29T02:41:05.784Z,10.53
2023-04-29T02:43:32.637Z,10.60
2023-04-29T02:46:00.265Z,10.63
2023-04-29T02:48:26.972Z,10.87
2023-04-29T02:50:53.569Z,10.97
2023-04-29T02:53:20.920Z,10.53
2023-04-29T02:55:48.344Z,10.60
2023-04-29T02:58:14.934Z,11.70
2023-04-29T03:00:42.175Z,11.63
2023-04-29T03:03:09.352Z,13.27
2023-04-29T03:05:36.107Z,12.37
2023-04-29T03:08:04.092Z,12.47
2023-04-29T03:10:31.005Z,11.63
2023-04-29T03:12:57.608Z,11.87
2023-04-29T03:15:24.200Z,12.73
2023-04-29T03:17:50.880Z,13.57
2023-04-29T03:20:17.717Z,13.63
2023-04-29T03:22:44.364Z,14.23
2023-04-29T03:25:11.022Z,13.53
2023-04-29T03:27:37.571Z,14.67
2023-04-29T03:30:04.617Z,14.07
2023-04-29T03:32:31.248Z,14.97
2023-04-29T03:34:57.807Z,15.47
2023-04-29T03:37:24.417Z,15.73
2023-04-29T03:39:51.141Z,16.47
2023-04-29T03:42:17.947Z,16.87
2023-04-29T03:44:44.537Z,16.77
2023-04-29T03:47:11.228Z,18.07
2023-04-29T03:49:37.814Z,17.23
2023-04-29T03:52:04.793Z,16.40
2023-04-29T03:54:31.638Z,15.03
2023-04-29T03:56:58.202Z,16.33
2023-04-29T03:59:24.873Z,16.70
2023-04-29T04:01:54.086Z,16.67
2023-04-29T04:04:21.584Z,16.90
2023-04-29T04:06:51.717Z,17.07
2023-04-29T04:09:18.602Z,17.27
2023-04-29T04:11:45.699Z,16.57
2023-04-29T04:14:12.389Z,17.50
2023-04-29T04:16:39.023Z,19.00
2023-04-29T04:19:05.615Z,19.07
2023-04-29T04:21:32.180Z,19.83
2023-04-29T04:23:58.741Z,20.53
2023-04-29T04:26:25.379Z,20.73
2023-04-29T04:28:52.230Z,20.17
2023-04-29T04:31:18.842Z,20.87
2023-04-29T04:33:45.452Z,21.53
2023-04-29T04:36:13.399Z,21.60
2023-04-29T04:38:39.996Z,21.50
2023-04-29T04:41:08.051Z,20.93
2023-04-29T04:43:34.640Z,20.40
2023-04-29T04:46:09.409Z,24.83
2023-04-29T04:48:36.163Z,20.63
2023-04-29T04:51:13.627Z,20.37
2023-04-29T04:53:40.853Z,20.80
2023-04-29T04:56:08.302Z,20.40
2023-04-29T04:58:34.878Z,21.73
2023-04-29T05:01:01.714Z,22.37
2023-04-29T05:03:28.606Z,22.30
2023-04-29T05:05:56.827Z,23.13
2023-04-29T05:08:23.433Z,23.30
2023-04-29T05:10:50.106Z,23.37
2023-04-29T05:13:16.749Z,23.47
2023-04-29T05:15:43.830Z,24.63
2023-04-29T05:18:11.343Z,23.40
2023-04-29T05:20:38.097Z,24.67
2023-04-29T05:23:04.686Z,22.50
2023-04-29T05:25:31.534Z,24.57
2023-04-29T05:27:58.260Z,24.40
2023-04-29T05:30:24.859Z,22.47
2023-04-29T05:32:51.769Z,23.83
2023-04-29T05:35:18.373Z,23.67
2023-04-29T05:37:44.923Z,23.37
2023-04-29T05:40:11.858Z,23.20
2023-04-29T05:42:38.418Z,21.10
2023-04-29T05:45:05.385Z,20.73
2023-04-29T05:47:31.979Z,20.40
2023-04-29T05:49:58.768Z,20.00
2023-04-29T05:52:25.472Z,21.40
2023-04-29T05:54:52.062Z,21.00
2023-04-29T05:57:18.648Z,20.83
2023-04-29T05:59:45.542Z,20.93
2023-04-29T06:02:12.455Z,20.30
2023-04-29T06:04:41.446Z,20.73
2023-04-29T06:07:09.271Z,20.60
2023-04-29T06:09:36.656Z,20.53
2023-04-29T06:12:03.516Z,20.97
2023-04-29T06:14:30.328Z,21.73
2023-04-29T06:16:57.103Z,20.33
2023-04-29T06:19:25.293Z,20.80
2023-04-29T06:21:51.947Z,21.00
2023-04-29T06:24:18.529Z,21.33
2023-04-29T06:26:45.577Z,19.93
2023-04-29T06:29:12.465Z,20.53
2023-04-29T06:31:39.073Z,21.60
2023-04-29T06:34:05.866Z,19.23
2023-04-29T06:36:33.047Z,19.63
2023-04-29T06:38:59.713Z,19.73
2023-04-29T06:41:26.753Z,19.60
2023-04-29T06:43:53.349Z,18.17
2023-04-29T06:46:20.042Z,17.10
2023-04-29T06:48:46.649Z,17.83
2023-04-29T06:51:13.352Z,16.50
2023-04-29T06:53:39.965Z,16.87
2023-04-29T06:56:07.235Z,16.70
2023-04-29T06:58:40.045Z,16.37
2023-04-29T07:01:08.362Z,16.37
2023-04-29T07:03:35.085Z,16.50
2023-04-29T07:06:01.805Z,16.13
2023-04-29T07:08:28.733Z,15.30
2023-04-29T07:10:58.737Z,15.40
2023-04-29T07:13:26.077Z,15.10
2023-04-29T07:15:52.978Z,15.30
2023-04-29T07:18:19.697Z,14.47
2023-04-29T07:20:47.877Z,15.13
2023-04-29T07:23:15.248Z,14.60
2023-04-29T07:25:41.981Z,14.73
2023-04-29T07:28:09.171Z,13.67
2023-04-29T07:30:36.215Z,13.77
2023-04-29T07:33:04.285Z,13.30
2023-04-29T07:35:31.561Z,12.53
2023-04-29T07:37:58.267Z,13.40
2023-04-29T07:40:24.993Z,13.00
2023-04-29T07:42:51.738Z,12.70
2023-04-29T07:45:18.464Z,12.93
2023-04-29T07:47:45.777Z,13.10
2023-04-29T07:50:12.674Z,11.83
2023-04-29T07:52:39.305Z,11.60
2023-04-29T07:55:06.185Z,11.30
2023-04-29T07:57:32.788Z,12.00
2023-04-29T07:59:59.656Z,10.93
2023-04-29T08:02:26.420Z,10.80
2023-04-29T08:04:54.649Z,10.80
2023-04-29T08:07:21.713Z,10.00
2023-04-29T08:09:48.291Z,10.33
2023-04-29T08:12:14.894Z,10.83
2023-04-29T08:14:41.802Z,10.50
2023-04-29T08:17:08.835Z,10.13
2023-04-29T08:19:35.897Z,9.90
2023-04-29T08:22:04.261Z,10.37
2023-04-29T08:24:31.121Z,10.83
2023-04-29T08:26:59.174Z,10.40
2023-04-29T08:29:26.188Z,11.33
2023-04-29T08:31:53.052Z,10.83
2023-04-29T08:34:19.734Z,11.20
2023-04-29T08:36:46.355Z,11.17
2023-04-29T08:39:12.917Z,11.33
2023-04-29T08:41:39.588Z,10.37
2023-04-29T08:44:06.748Z,11.47
2023-04-29T08:46:33.508Z,10.90
2023-04-29T08:49:03.951Z,11.50
2023-04-29T08:51:32.464Z,11.53
2023-04-29T08:54:00.758Z,11.13
2023-04-29T08:56:28.860Z,11.00
2023-04-29T08:58:58.951Z,11.53
2023-04-29T09:01:28.959Z,10.87
2023-04-29T09:04:28.883Z,13.63
2023-04-29T09:06:59.673Z,13.97
2023-04-29T09:09:26.659Z,15.37
2023-04-29T09:11:53.466Z,16.00
2023-04-29T09:14:21.093Z,17.50
2023-04-29T09:16:48.400Z,18.60
2023-04-29T09:19:35.601Z,19.57
2023-04-29T09:22:07.942Z,20.27
2023-04-29T09:24:34.627Z,19.50
2023-04-29T09:27:03.329Z,20.00
2023-04-29T09:29:32.960Z,21.07
2023-04-29T09:31:59.724Z,21.20
2023-04-29T09:34:38.437Z,20.97
2023-04-29T09:37:27.882Z,21.47
2023-04-29T09:39:54.992Z,21.17
2023-04-29T09:42:21.636Z,22.67
2023-04-29T09:44:48.589Z,22.10
2023-04-29T09:47:15.572Z,22.20
2023-04-29T09:49:45.430Z,22.80
2023-04-29T09:52:13.992Z,24.20
2023-04-29T09:54:42.469Z,24.83
2023-04-29T09:57:11.256Z,26.57
2023-04-29T09:59:40.348Z,27.67
2023-04-29T10:02:20.919Z,27.27
2023-04-29T10:04:57.453Z,29.80
2023-04-29T10:07:28.002Z,29.20
2023-04-29T10:09:55.524Z,30.57
2023-04-29T10:12:23.882Z,30.90
2023-04-29T10:15:09.863Z,31.67
2023-04-29T10:18:14.267Z,30.13
2023-04-29T10:20:47.408Z,30.00
2023-04-29T10:23:15.292Z,29.27
2023-04-29T10:25:46.706Z,29.70
2023-04-29T10:28:16.766Z,30.67
2023-04-29T10:30:45.741Z,29.40
2023-04-29T10:33:16.406Z,28.93
2023-04-29T10:35:45.059Z,27.20
2023-04-29T10:38:20.358Z,27.50
2023-04-29T10:40:48.760Z,27.43
2023-04-29T10:43:16.150Z,26.13
2023-04-29T10:45:42.806Z,25.60
2023-04-29T10:48:12.924Z,24.80
2023-04-29T10:50:48.686Z,24.20
2023-04-29T10:53:19.557Z,24.80
2023-04-29T10:55:57.049Z,23.90
2023-04-29T10:58:46.436Z,22.33
2023-04-29T11:01:15.401Z,21.63
2023-04-29T11:04:05.617Z,21.43
2023-04-29T11:06:35.338Z,21.07
2023-04-29T11:09:14.414Z,19.40
2023-04-29T11:11:46.185Z,20.53
2023-04-29T11:14:14.149Z,20.10
2023-04-29T11:17:07.737Z,19.03
2023-04-29T11:19:36.621Z,18.87
2023-04-29T11:22:18.421Z,18.57
2023-04-29T11:24:55.678Z,18.90
2023-04-29T11:27:27.881Z,18.40
2023-04-29T11:29:58.156Z,17.47
2023-04-29T11:32:29.258Z,16.23
2023-04-29T11:34:56.586Z,16.97
2023-04-29T11:37:25.962Z,15.30
2023-04-29T11:40:00.385Z,15.43
2023-04-29T11:42:28.516Z,14.57
2023-04-29T11:45:00.401Z,14.32
2023-04-29T11:47:31.532Z,13.60
2023-04-29T11:50:12.534Z,12.57
2023-04-29T11:52:40.672Z,12.97
2023-04-29T11:55:12.026Z,13.27
2023-04-29T11:57:41.765Z,12.67
2023-04-29T12:00:13.499Z,12.80
2023-04-29T12:02:45.389Z,12.53
2023-04-29T12:05:15.742Z,12.33
2023-04-29T12:07:43.626Z,11.70
2023-04-29T12:10:11.923Z,12.30
2023-04-29T12:12:41.353Z,12.50
2023-04-29T12:15:13.695Z,11.27
2023-04-29T12:17:41.289Z,11.80
2023-04-29T12:20:12.675Z,11.60
2023-04-29T12:22:39.727Z,11.03
2023-04-29T12:25:08.016Z,11.80
2023-04-29T12:27:40.027Z,11.03
2023-04-29T12:30:09.363Z,11.23
2023-04-29T12:32:37.089Z,10.43
2023-04-29T12:35:04.031Z,11.00
2023-04-29T12:37:30.871Z,11.00
2023-04-29T12:39:57.625Z,10.87
2023-04-29T12:42:24.279Z,9.90
2023-04-29T12:44:51.000Z,9.20
2023-04-29T12:47:17.734Z,10.03
2023-04-29T12:49:49.289Z,9.83
2023-04-29T12:52:16.131Z,9.60
2023-04-29T12:54:43.662Z,8.83
2023-04-29T12:57:11.900Z,8.83
2023-04-29T12:59:39.677Z,9.10
2023-04-29T13:02:06.448Z,10.70
2023-04-29T13:04:33.299Z,7.60
2023-04-29T13:07:00.698Z,8.07
2023-04-29T13:09:27.451Z,7.40
2023-04-29T13:11:54.394Z,7.38
2023-04-29T13:14:21.405Z,7.00
2023-04-29T13:16:48.168Z,7.05
2023-04-29T13:19:32.221Z,7.50
2023-04-29T13:22:01.825Z,7.07
2023-04-29T13:24:28.405Z,6.67
2023-04-29T13:26:55.014Z,6.10
2023-04-29T13:29:21.647Z,6.30
2023-04-29T13:31:48.404Z,6.17
2023-04-29T13:34:15.108Z,6.03
2023-04-29T13:36:41.774Z,5.85
2023-04-29T13:39:08.845Z,6.37
2023-04-29T13:41:35.734Z,5.80
2023-04-29T13:44:03.060Z,6.20
2023-04-29T13:46:31.999Z,5.90
2023-04-29T13:54:48.082Z,6.80
2023-04-29T13:59:40.090Z,7.50
2023-04-29T14:04:31.473Z,7.60
2023-04-29T14:06:58.343Z,7.40
2023-04-29T14:09:25.031Z,7.18
2023-04-29T14:11:51.871Z,7.18
2023-04-29T14:14:18.435Z,7.53
2023-04-29T14:16:45.053Z,7.20
2023-04-29T14:19:11.973Z,7.40
2023-04-29T14:21:38.996Z,7.50
2023-04-29T14:24:05.839Z,7.67
2023-04-29T14:26:32.410Z,7.43
2023-04-29T14:29:00.258Z,7.40
2023-04-29T14:31:29.199Z,8.20
2023-04-29T14:33:56.831Z,7.70
2023-04-29T14:36:23.544Z,7.88
2023-04-29T14:38:50.276Z,6.95
2023-04-29T14:41:16.967Z,7.15
2023-04-29T14:43:44.351Z,7.03
2023-04-29T14:46:11.053Z,7.13
2023-04-29T14:48:37.704Z,6.15
2023-04-29T14:51:04.541Z,6.50
2023-04-29T14:53:31.113Z,6.60
2023-04-29T14:55:57.890Z,6.10
2023-04-29T14:58:24.577Z,5.72
2023-04-29T15:00:51.686Z,5.90
2023-04-29T15:03:22.570Z,5.70
2023-04-29T15:05:51.305Z,6.38
2023-04-29T15:08:19.084Z,5.78
2023-04-29T15:10:47.386Z,5.60
2023-04-29T15:13:14.098Z,5.63
2023-04-29T15:15:40.728Z,6.07
2023-04-29T15:18:08.777Z,5.70
2023-04-29T15:20:36.674Z,5.80
2023-04-29T15:23:04.149Z,6.72
2023-04-29T15:25:33.312Z,5.80
2023-04-29T15:28:00.053Z,5.65
2023-04-29T15:30:27.198Z,5.75
2023-04-29T15:32:55.545Z,6.18
2023-04-29T15:35:22.244Z,6.15
2023-04-29T15:37:49.141Z,5.88
2023-04-29T15:40:16.854Z,5.45
2023-04-29T15:42:43.463Z,5.65
2023-04-29T15:45:10.792Z,5.85
2023-04-29T15:47:37.499Z,6.47
2023-04-29T15:50:04.396Z,5.93
2023-04-29T15:52:31.053Z,5.80
2023-04-29T15:54:58.400Z,5.57
2023-04-29T15:57:25.825Z,6.28
2023-04-29T15:59:52.738Z,6.50
2023-04-29T16:02:20.363Z,6.50
2023-04-29T16:04:46.953Z,6.05
2023-04-29T16:07:13.674Z,6.20
2023-04-29T16:09:40.303Z,6.20
2023-04-29T16:12:08.043Z,5.78
2023-04-29T16:14:34.640Z,6.28
2023-04-29T16:17:01.391Z,5.80
2023-04-29T16:19:28.285Z,6.25
2023-04-29T16:21:55.516Z,6.60
2023-04-29T16:24:22.181Z,5.82
2023-04-29T16:26:50.731Z,5.80
2023-04-29T16:29:18.281Z,5.65
2023-04-29T16:31:44.983Z,5.28
2023-04-29T16:34:12.370Z,5.47
2023-04-29T16:36:39.324Z,5.70
2023-04-29T16:39:06.188Z,5.25
2023-04-29T16:41:33.016Z,5.20
2023-04-29T16:43:59.637Z,5.15
2023-04-29T16:46:26.248Z,5.85
2023-04-29T16:48:56.653Z,5.70
2023-04-29T16:51:29.114Z,5.70
2023-04-29T16:53:55.697Z,5.45
2023-04-29T16:56:22.509Z,5.15
2023-04-29T16:58:49.313Z,4.45
2023-04-29T17:01:19.102Z,3.60
2023-04-29T17:03:47.343Z,3.93
2023-04-29T17:06:15.614Z,3.58
2023-04-29T17:08:43.043Z,3.40
2023-04-29T17:11:10.358Z,3.25
2023-04-29T17:13:37.031Z,3.00
2023-04-29T17:16:04.542Z,3.53
2023-04-29T17:18:31.211Z,3.42
2023-04-29T17:20:58.117Z,3.33
2023-04-29T17:23:24.873Z,3.23
2023-04-29T17:25:51.440Z,2.97
2023-04-29T17:28:18.014Z,3.10
2023-04-29T17:30:44.602Z,3.50
2023-04-29T17:33:13.261Z,3.50
2023-04-29T17:35:40.756Z,2.90
2023-04-29T17:38:07.346Z,2.60
2023-04-29T17:40:34.166Z,3.10
2023-04-29T17:43:01.161Z,3.13
2023-04-29T17:45:27.818Z,3.93
2023-04-29T17:47:54.508Z,3.47
2023-04-29T17:50:21.280Z,3.00
2023-04-29T17:52:48.361Z,3.40
2023-04-29T17:55:14.945Z,3.73
2023-04-29T17:57:42.048Z,3.47
2023-04-29T18:00:09.671Z,3.17
2023-04-29T18:02:37.184Z,3.17
2023-04-29T18:05:04.236Z,3.00
2023-04-29T18:07:30.925Z,3.30
2023-04-29T18:09:58.085Z,3.57
2023-04-29T18:12:25.143Z,3.30
2023-04-29T18:14:52.259Z,3.40
2023-04-29T18:17:19.287Z,3.15
2023-04-29T18:19:52.349Z,3.57
2023-04-29T18:22:19.129Z,3.35
2023-04-29T18:24:46.624Z,3.38
2023-04-29T18:27:13.239Z,3.53
2023-04-29T18:29:39.838Z,3.50
2023-04-29T18:32:07.934Z,6.13
2023-04-29T18:34:35.017Z,4.10
2023-04-29T18:37:01.772Z,4.17
2023-04-29T18:39:28.405Z,4.00
2023-04-29T18:41:55.261Z,3.60
2023-04-29T18:44:21.838Z,4.20
2023-04-29T18:46:48.491Z,3.80
2023-04-29T18:49:18.283Z,3.93
2023-04-29T18:51:48.057Z,3.73
2023-04-29T18:54:15.925Z,3.50
2023-04-29T18:56:46.440Z,3.37
2023-04-29T18:59:15.790Z,3.60
2023-04-29T19:01:43.161Z,3.20
2023-04-29T19:04:10.370Z,3.10
2023-04-29T19:06:37.460Z,2.53
2023-04-29T19:09:05.533Z,2.87
2023-04-29T19:11:32.195Z,2.70
2023-04-29T19:13:58.884Z,3.10
2023-04-29T19:16:26.342Z,2.90
2023-04-29T19:18:53.214Z,2.83
2023-04-29T19:21:20.206Z,3.10
2023-04-29T19:23:47.025Z,2.90
2023-04-29T19:26:13.652Z,3.10
2023-04-29T19:28:40.464Z,2.93
2023-04-29T19:31:07.154Z,2.93
2023-04-29T19:33:33.931Z,2.90
2023-04-29T19:36:00.847Z,2.70
2023-04-29T19:38:27.686Z,3.30
2023-04-29T19:40:55.984Z,2.70
2023-04-29T19:43:23.112Z,3.30
2023-04-29T19:45:52.702Z,3.53
2023-04-29T19:48:21.190Z,3.50
2023-04-29T19:50:47.923Z,3.30
2023-04-29T19:53:14.705Z,3.47
2023-04-29T19:55:41.517Z,3.37
2023-04-29T19:58:08.200Z,3.80
2023-04-29T20:00:35.274Z,3.67
2023-04-29T20:03:02.736Z,3.60
2023-04-29T20:05:29.648Z,3.70
2023-04-29T20:07:56.303Z,3.27
2023-04-29T20:10:23.141Z,3.33
2023-04-29T20:12:49.868Z,3.70
2023-04-29T20:15:16.812Z,3.60
2023-04-29T20:17:43.691Z,4.10
2023-04-29T20:20:10.635Z,3.97
2023-04-29T20:22:37.643Z,3.83
2023-04-29T20:25:04.771Z,4.30
2023-04-29T20:27:31.379Z,4.47
2023-04-29T20:29:57.981Z,3.90
2023-04-29T20:32:24.753Z,3.97
2023-04-29T20:34:51.973Z,3.63
2023-04-29T20:37:19.801Z,3.83
2023-04-29T20:39:47.247Z,4.27
2023-04-29T20:42:14.242Z,3.80
2023-04-29T20:44:41.555Z,3.73
2023-04-29T20:47:08.601Z,4.20
2023-04-29T20:49:35.186Z,4.43
2023-04-29T20:52:02.073Z,4.20
2023-04-29T20:54:28.660Z,4.40
2023-04-29T20:56:55.245Z,4.20
2023-04-29T20:59:21.793Z,4.27
2023-04-29T21:01:48.396Z,3.70
2023-04-29T21:04:15.326Z,4.63
2023-04-29T21:06:42.025Z,4.70
2023-04-29T21:09:11.360Z,5.37
2023-04-29T21:11:37.976Z,5.03
2023-04-29T21:14:04.568Z,4.90
2023-04-29T21:16:31.186Z,5.20
2023-04-29T21:18:57.803Z,5.70
2023-04-29T21:21:25.163Z,5.83
2023-04-29T21:23:51.740Z,5.67
2023-04-29T21:26:18.444Z,6.23
2023-04-29T21:28:45.694Z,5.60
2023-04-29T21:31:16.573Z,5.87
2023-04-29T21:33:46.661Z,5.90
2023-04-29T21:36:13.776Z,5.63
2023-04-29T21:38:42.629Z,4.90
2023-04-29T21:41:23.044Z,4.70
2023-04-29T21:43:50.418Z,5.20
2023-04-29T21:46:17.532Z,5.00
2023-04-29T21:48:44.440Z,4.70
2023-04-29T21:51:11.343Z,4.57
2023-04-29T21:53:41.518Z,4.37
2023-04-29T21:56:08.127Z,5.37
2023-04-29T21:58:34.678Z,4.27
2023-04-29T22:01:03.476Z,4.33
2023-04-29T22:03:32.383Z,3.80
2023-04-29T22:05:59.036Z,4.73
2023-04-29T22:08:25.697Z,4.00
2023-04-29T22:10:52.319Z,3.83
2023-04-29T22:13:18.903Z,3.43
2023-04-29T22:15:45.498Z,3.57
2023-04-29T22:18:12.253Z,3.83
2023-04-29T22:20:38.938Z,3.30
2023-04-29T22:23:05.676Z,3.43
2023-04-29T22:25:32.361Z,3.03
2023-04-29T22:27:59.041Z,3.00
2023-04-29T22:30:25.645Z,2.70
2023-04-29T22:32:52.556Z,3.07
2023-04-29T22:35:19.282Z,2.93
2023-04-29T22:37:46.418Z,3.07
2023-04-29T22:40:13.647Z,3.20
2023-04-29T22:42:41.836Z,3.60
2023-04-29T22:45:10.118Z,3.10
2023-04-29T22:47:36.697Z,2.83
2023-04-29T22:50:03.602Z,2.70
2023-04-29T22:52:32.577Z,2.73
2023-04-29T22:54:59.752Z,2.47
2023-04-29T22:57:26.324Z,3.00
2023-04-29T22:59:56.809Z,3.00
2023-04-29T23:02:28.984Z,2.60
2023-04-29T23:04:56.475Z,2.60
2023-04-29T23:07:23.485Z,2.50
2023-04-29T23:09:50.849Z,2.63
2023-04-29T23:12:18.247Z,2.47
2023-04-29T23:14:45.657Z,2.73
2023-04-29T23:17:12.336Z,2.87
2023-04-29T23:19:38.981Z,2.50
2023-04-29T23:22:08.543Z,2.83
2023-04-29T23:24:35.573Z,2.60
2023-04-29T23:27:05.499Z,2.90
2023-04-29T23:29:33.904Z,2.67
2023-04-29T23:32:01.149Z,2.70
2023-04-29T23:34:27.766Z,2.63
2023-04-29T23:36:54.344Z,2.63
2023-04-29T23:39:20.925Z,3.10
2023-04-29T23:41:47.611Z,2.97
2023-04-29T23:44:14.200Z,2.63
2023-04-29T23:46:40.887Z,2.77
2023-04-29T23:49:07.599Z,2.57
2023-04-29T23:51:34.312Z,2.80
2023-04-29T23:54:00.834Z,2.73
2023-04-29T23:56:29.125Z,2.57
2023-04-29T23:58:55.854Z,2.33
